Terminal Aerodrome Forecast
Issued by NWS

Home | Current Version | Previous Version | Text Only | Print | Product List | Glossary On
Versions: 1 2 3 4 5 6 7 8 9 10 11 12 13 14
000
FTUS45 KPSR 241457 AAA
TAFIWA
TAF AMD
KIWA 241457Z 2415/2512 12007KT P6SM SCT250
     FM242000 26006KT P6SM SCT250
     FM250600 12005KT P6SM FEW250=

USA.gov is the U.S. government's official web portal to all federal, state and local government web resources and services.